Time;durP1;ratioP1;P1;durP2;ratioP2;P2;SDS_P1;SDS_P2;PMS_P1;PMS_P2;Temp;Humidity;BMP_temperature;BMP_pressure;BME280_temperature;BME280_humidity;BME280_pressure;Samples;Min_cycle;Max_cycle;Signal;HPM_P1;HPM_P2
2023/10/15 00:00:18;;;;;;;4.05;1.27;;;9.90;99.90;;;;;;5056759;28;20031;-91
2023/10/15 00:02:49;;;;;;;2.42;1.20;;;9.90;99.90;;;;;;5056862;28;20081;-91
2023/10/15 00:05:27;;;;;;;3.30;1.30;;;10.00;99.90;;;;;;5056799;28;20056;-93
2023/10/15 00:07:52;;;;;;;2.10;0.90;;;10.00;99.90;;;;;;5056607;28;20107;-92
2023/10/15 00:10:20;;;;;;;2.75;1.00;;;10.00;99.90;;;;;;5056514;28;20139;-90
2023/10/15 00:12:49;;;;;;;3.00;0.90;;;10.00;99.90;;;;;;5056386;28;20376;-93
2023/10/15 00:15:18;;;;;;;3.10;1.00;;;10.00;99.90;;;;;;5074512;28;20031;-90
2023/10/15 00:17:50;;;;;;;2.75;0.93;;;10.10;99.90;;;;;;5040448;28;20111;-91
2023/10/15 00:20:17;;;;;;;2.83;0.82;;;10.10;99.90;;;;;;5041039;28;20119;-92
2023/10/15 00:22:48;;;;;;;2.38;0.80;;;10.10;99.90;;;;;;5039739;28;20028;-91
2023/10/15 00:25:14;;;;;;;3.45;0.80;;;10.10;99.90;;;;;;5039931;28;20024;-90
2023/10/15 00:27:44;;;;;;;2.45;0.80;;;10.10;99.90;;;;;;5056669;28;20029;-93
2023/10/15 00:30:14;;;;;;;3.50;0.95;;;10.10;99.90;;;;;;5056556;28;20116;-92
2023/10/15 00:32:43;;;;;;;3.15;1.10;;;10.10;99.90;;;;;;5056138;28;20032;-90
2023/10/15 00:35:09;;;;;;;3.80;0.90;;;10.10;99.90;;;;;;5048121;28;20036;-91
2023/10/15 00:37:40;;;;;;;2.58;0.98;;;10.20;99.90;;;;;;5080373;28;20044;-88
2023/10/15 00:40:16;;;;;;;4.27;0.97;;;10.20;99.90;;;;;;5081343;28;20084;-92
2023/10/15 00:42:44;;;;;;;2.88;1.00;;;10.20;99.90;;;;;;5061448;28;20292;-90
2023/10/15 00:45:10;;;;;;;2.60;0.90;;;10.20;99.90;;;;;;5054443;28;20097;-90
2023/10/15 00:47:37;;;;;;;2.90;1.00;;;10.20;99.90;;;;;;5065707;28;20052;-89
2023/10/15 00:50:09;;;;;;;2.35;0.80;;;10.20;99.90;;;;;;5060660;28;20031;-91
2023/10/15 00:52:42;;;;;;;1.52;0.70;;;10.20;99.90;;;;;;5077686;28;20029;-90
2023/10/15 00:55:17;;;;;;;1.73;0.45;;;10.20;99.90;;;;;;5061050;28;20033;-89
2023/10/15 00:57:47;;;;;;;1.92;0.70;;;10.20;99.90;;;;;;5059930;28;20024;-89
2023/10/15 01:02:59;;;;;;;3.20;0.90;;;10.20;99.90;;;;;;5077301;28;20035;-89
2023/10/15 01:05:27;;;;;;;2.85;0.82;;;10.20;99.90;;;;;;5043386;28;20029;-89
2023/10/15 01:07:54;;;;;;;1.67;0.55;;;10.30;99.90;;;;;;5077149;28;20031;-90
2023/10/15 01:10:40;;;;;;;2.50;0.80;;;10.20;99.90;;;;;;5042984;28;20028;-91
2023/10/15 01:13:21;;;;;;;1.40;0.55;;;10.30;99.90;;;;;;5061521;28;20143;-89
2023/10/15 01:15:54;;;;;;;1.95;0.63;;;10.30;99.90;;;;;;5058857;28;20110;-91
2023/10/15 01:18:22;;;;;;;2.80;0.70;;;10.30;99.90;;;;;;5059366;28;20032;-90
2023/10/15 01:20:48;;;;;;;0.80;0.50;;;10.40;99.90;;;;;;5042882;28;20033;-90
2023/10/15 01:23:28;;;;;;;2.25;0.73;;;10.30;99.90;;;;;;5042462;28;20047;-89
2023/10/15 01:25:57;;;;;;;1.85;0.55;;;10.40;99.90;;;;;;5059066;28;20027;-91
2023/10/15 01:28:32;;;;;;;1.55;0.80;;;10.40;99.90;;;;;;5059031;28;20028;-90
2023/10/15 01:31:01;;;;;;;2.42;0.60;;;10.40;99.90;;;;;;5060166;28;20419;-89
2023/10/15 01:33:30;;;;;;;1.10;0.43;;;10.40;99.90;;;;;;5058488;28;20024;-91
2023/10/15 01:36:06;;;;;;;1.60;0.50;;;10.40;99.90;;;;;;5058374;28;20051;-91
2023/10/15 01:38:33;;;;;;;1.30;0.50;;;10.40;99.90;;;;;;5058733;28;20456;-90
2023/10/15 01:41:03;;;;;;;1.35;0.47;;;10.40;99.90;;;;;;5058621;28;20021;-91
2023/10/15 01:43:32;;;;;;;1.23;0.40;;;10.40;99.90;;;;;;5058749;28;20025;-89
2023/10/15 01:46:06;;;;;;;1.60;0.45;;;10.40;99.90;;;;;;5058589;28;20024;-90
2023/10/15 01:48:32;;;;;;;2.85;0.70;;;10.40;99.90;;;;;;5076520;28;20020;-89
2023/10/15 01:51:04;;;;;;;1.65;0.50;;;10.40;99.90;;;;;;5041800;28;20032;-89
2023/10/15 01:53:34;;;;;;;1.77;0.60;;;10.40;99.90;;;;;;5058719;28;20025;-90
2023/10/15 01:56:04;;;;;;;2.78;0.88;;;10.40;99.90;;;;;;5058276;28;20032;-89
2023/10/15 01:58:31;;;;;;;3.25;0.70;;;10.40;99.90;;;;;;5076631;28;20024;-89
2023/10/15 02:01:05;;;;;;;2.72;1.23;;;10.40;99.90;;;;;;5058313;28;20088;-90
2023/10/15 02:03:33;;;;;;;2.58;0.70;;;10.40;99.90;;;;;;5043414;28;20097;-91
2023/10/15 02:06:05;;;;;;;1.50;0.70;;;10.40;99.90;;;;;;5059283;28;20028;-90
2023/10/15 02:08:31;;;;;;;2.03;0.80;;;10.40;99.90;;;;;;5076808;28;20021;-89
2023/10/15 02:10:57;;;;;;;2.13;0.70;;;10.40;99.90;;;;;;5061205;28;20089;-89
2023/10/15 02:13:22;;;;;;;1.90;0.70;;;10.50;99.90;;;;;;5062647;28;20060;-89
2023/10/15 02:15:57;;;;;;;2.00;0.80;;;10.50;99.90;;;;;;5050481;28;20090;-91
2023/10/15 02:18:23;;;;;;;3.28;0.98;;;10.50;99.90;;;;;;5055877;28;20025;-89
2023/10/15 02:23:23;;;;;;;2.75;1.10;;;10.50;99.90;;;;;;5056061;28;20087;-89
2023/10/15 02:25:58;;;;;;;1.60;0.60;;;10.50;99.90;;;;;;5038078;28;20029;-90
2023/10/15 02:28:31;;;;;;;1.00;0.55;;;10.50;99.90;;;;;;5039487;28;20040;-90
2023/10/15 02:31:14;;;;;;;2.40;0.70;;;10.60;99.90;;;;;;5054701;28;20025;-90
2023/10/15 02:33:42;;;;;;;2.45;0.80;;;10.50;99.90;;;;;;5055787;28;20025;-90
2023/10/15 02:36:09;;;;;;;2.22;0.73;;;10.60;99.90;;;;;;5054308;28;20075;-90
2023/10/15 02:38:48;;;;;;;1.10;0.45;;;10.60;99.90;;;;;;5038052;28;20096;-89
2023/10/15 02:41:17;;;;;;;2.08;0.57;;;10.60;99.90;;;;;;5054523;28;20479;-89
2023/10/15 02:43:48;;;;;;;0.88;0.40;;;10.60;99.90;;;;;;5054880;28;20029;-91
2023/10/15 02:46:22;;;;;;;;;;;10.60;99.90;;;;;;5056102;28;20029;-89
2023/10/15 02:48:54;;;;;;;2.30;0.60;;;10.60;99.90;;;;;;5054421;28;19915;-91
2023/10/15 02:51:24;;;;;;;1.45;0.70;;;10.60;99.90;;;;;;5055329;28;20024;-90
2023/10/15 02:54:18;;;;;;;1.75;0.57;;;10.60;99.90;;;;;;5054092;28;20025;-87
2023/10/15 02:56:48;;;;;;;3.05;0.45;;;10.60;99.90;;;;;;5054574;28;20029;-91
2023/10/15 02:59:16;;;;;;;1.52;0.50;;;10.60;99.90;;;;;;5053914;28;20461;-93
2023/10/15 03:01:46;;;;;;;1.17;0.40;;;10.60;99.90;;;;;;5055080;28;20082;-90
2023/10/15 03:04:11;;;;;;;0.60;0.40;;;10.60;99.90;;;;;;5054935;28;20061;-90
2023/10/15 03:06:41;;;;;;;0.73;0.28;;;10.60;99.90;;;;;;5037243;28;20464;-90
2023/10/15 03:09:11;;;;;;;1.25;0.50;;;10.60;99.90;;;;;;5037613;28;20021;-91
2023/10/15 03:11:46;;;;;;;1.60;0.60;;;10.60;99.90;;;;;;5053065;28;20025;-90
2023/10/15 03:14:12;;;;;;;1.73;0.50;;;10.60;99.90;;;;;;5068389;28;20044;-90
2023/10/15 03:16:43;;;;;;;0.82;0.50;;;10.50;99.90;;;;;;5074717;28;20031;-90
2023/10/15 03:19:19;;;;;;;1.88;0.60;;;10.50;99.90;;;;;;5057145;28;20027;-89
2023/10/15 03:21:45;;;;;;;0.50;0.40;;;10.50;99.90;;;;;;5074941;28;20115;-91
2023/10/15 03:24:14;;;;;;;1.15;0.70;;;10.50;99.90;;;;;;5056797;28;20043;-89
2023/10/15 03:26:47;;;;;;;1.08;0.40;;;10.50;99.90;;;;;;5074982;28;20020;-91
2023/10/15 03:29:15;;;;;;;0.85;0.40;;;10.50;99.90;;;;;;5041543;28;20056;-90
2023/10/15 03:32:02;;;;;;;2.15;0.70;;;10.50;99.90;;;;;;5040806;28;20029;-90
2023/10/15 03:34:27;;;;;;;0.88;0.50;;;10.50;99.90;;;;;;5057340;28;20119;-91
2023/10/15 03:36:59;;;;;;;1.33;0.57;;;10.50;99.90;;;;;;5057553;28;20063;-90
2023/10/15 03:39:27;;;;;;;1.15;0.40;;;10.50;99.90;;;;;;5042055;28;20056;-90
2023/10/15 03:41:54;;;;;;;0.85;0.22;;;10.50;99.90;;;;;;5048248;28;20020;-90
2023/10/15 03:44:27;;;;;;;2.28;0.60;;;10.50;99.90;;;;;;5064103;28;20080;-91
2023/10/15 03:46:54;;;;;;;1.42;0.40;;;10.50;99.90;;;;;;5065524;28;20012;-92
2023/10/15 03:49:27;;;;;;;2.80;0.68;;;10.50;99.90;;;;;;5075944;28;20507;-90
2023/10/15 03:51:53;;;;;;;1.55;0.50;;;10.50;99.90;;;;;;5041950;28;20111;-90
2023/10/15 03:54:22;;;;;;;0.88;0.38;;;10.50;99.90;;;;;;5074488;28;20116;-92
2023/10/15 03:56:48;;;;;;;2.03;0.50;;;10.50;99.90;;;;;;5040682;28;20119;-90
2023/10/15 03:59:14;;;;;;;0.70;0.40;;;10.40;99.90;;;;;;5056742;28;20120;-90
2023/10/15 04:01:49;;;;;;;0.80;0.30;;;10.40;99.90;;;;;;5074218;28;20056;-89
2023/10/15 04:04:17;;;;;;;1.50;0.47;;;10.40;99.90;;;;;;5056478;28;20127;-90
2023/10/15 04:07:25;;;;;;;2.15;0.57;;;10.40;99.90;;;;;;5040012;28;20029;-89
2023/10/15 04:09:34;;;;;;;2.03;0.45;;;10.50;99.90;;;;;;5049347;28;20472;-90
2023/10/15 04:12:01;;;;;;;0.80;0.40;;;10.50;99.90;;;;;;5040395;28;20068;-89
2023/10/15 04:14:28;;;;;;;2.38;0.70;;;10.50;99.90;;;;;;5039515;28;20107;-89
2023/10/15 04:17:00;;;;;;;2.45;0.82;;;10.40;99.90;;;;;;5056868;28;20052;-90
2023/10/15 04:19:27;;;;;;;1.20;0.50;;;10.40;99.90;;;;;;5074227;28;20056;-90
2023/10/15 04:21:59;;;;;;;2.17;0.60;;;10.30;99.90;;;;;;5073856;28;20029;-91
2023/10/15 04:24:36;;;;;;;2.08;0.40;;;10.30;99.90;;;;;;5060216;28;20024;-91
2023/10/15 04:27:15;;;;;;;2.72;0.70;;;10.20;99.90;;;;;;5078031;28;20031;-91
2023/10/15 04:30:06;;;;;;;1.27;0.40;;;10.10;99.90;;;;;;5060107;28;20017;-91
2023/10/15 04:32:45;;;;;;;2.08;0.57;;;10.00;99.90;;;;;;5063060;28;20032;-90
2023/10/15 04:35:15;;;;;;;1.48;0.30;;;10.00;99.90;;;;;;5059977;28;20040;-90
2023/10/15 04:37:44;;;;;;;0.80;0.37;;;10.00;99.90;;;;;;5060331;28;20025;-90
2023/10/15 04:40:13;;;;;;;0.85;0.40;;;10.10;99.90;;;;;;5059805;28;20400;-92
2023/10/15 04:42:51;;;;;;;1.80;0.47;;;10.00;99.90;;;;;;5043631;28;20039;-90
2023/10/15 04:45:20;;;;;;;1.95;0.50;;;10.00;99.90;;;;;;5044838;28;20029;-91
2023/10/15 04:48:12;;;;;;;0.60;0.30;;;10.10;99.90;;;;;;5059798;28;20024;-91
2023/10/15 04:50:39;;;;;;;0.93;0.55;;;10.10;99.90;;;;;;5077825;28;20452;-92
2023/10/15 04:55:44;;;;;;;1.55;0.55;;;10.10;99.90;;;;;;5077646;28;20123;-93
2023/10/15 04:58:10;;;;;;;0.98;0.40;;;10.10;99.90;;;;;;5059805;28;20064;-91
2023/10/15 05:00:50;;;;;;;0.38;0.30;;;10.10;99.90;;;;;;5060104;28;20059;-92
2023/10/15 05:03:16;;;;;;;0.47;0.30;;;10.10;99.90;;;;;;5077593;28;20032;-91
2023/10/15 05:05:44;;;;;;;1.02;0.40;;;10.10;99.90;;;;;;5077198;28;20469;-92
2023/10/15 05:08:11;;;;;;;0.38;0.32;;;10.10;99.90;;;;;;5059753;28;20020;-91
2023/10/15 05:10:44;;;;;;;2.13;0.50;;;10.10;99.90;;;;;;5077586;28;20024;-91
2023/10/15 05:13:10;;;;;;;1.15;0.50;;;10.10;99.90;;;;;;5070244;28;20049;-89
2023/10/15 05:15:36;;;;;;;1.38;0.30;;;10.10;99.90;;;;;;5080253;28;20041;-92
2023/10/15 05:18:04;;;;;;;1.23;0.40;;;10.10;99.90;;;;;;5063384;28;20035;-91
2023/10/15 05:20:31;;;;;;;0.93;0.35;;;10.10;99.90;;;;;;5079847;28;20029;-88
2023/10/15 05:22:56;;;;;;;1.15;0.40;;;10.10;99.90;;;;;;5062009;28;20019;-92
2023/10/15 05:25:22;;;;;;;1.30;0.40;;;10.00;99.90;;;;;;5059344;28;20107;-91
2023/10/15 05:27:51;;;;;;;0.85;0.40;;;10.00;99.90;;;;;;5055934;28;20032;-92
2023/10/15 05:30:18;;;;;;;0.80;0.35;;;10.00;99.90;;;;;;5056824;28;20025;-91
2023/10/15 05:32:44;;;;;;;1.95;0.50;;;10.00;99.90;;;;;;5056707;28;20029;-92
2023/10/15 05:35:11;;;;;;;1.83;0.60;;;9.90;99.90;;;;;;5055689;28;20029;-91
2023/10/15 05:37:39;;;;;;;1.77;0.40;;;9.90;99.90;;;;;;5055437;28;20071;-90
2023/10/15 05:40:06;;;;;;;0.70;0.40;;;9.90;99.90;;;;;;5055731;28;20377;-92
2023/10/15 05:42:32;;;;;;;1.60;0.50;;;9.80;99.90;;;;;;5055183;28;20111;-91
2023/10/15 05:44:58;;;;;;;1.55;0.60;;;9.80;99.90;;;;;;5055374;28;20025;-91
2023/10/15 05:47:24;;;;;;;0.52;0.40;;;9.80;99.90;;;;;;5055431;28;20365;-90
2023/10/15 05:49:50;;;;;;;1.15;0.60;;;9.80;99.90;;;;;;5055380;28;20021;-91
2023/10/15 05:52:15;;;;;;;0.88;0.52;;;9.70;99.90;;;;;;5055058;28;20032;-91
2023/10/15 05:54:41;;;;;;;1.55;0.75;;;9.70;99.90;;;;;;5055283;28;20036;-90
2023/10/15 05:57:07;;;;;;;1.23;0.32;;;9.70;99.90;;;;;;5038543;28;20182;-91
2023/10/15 05:59:35;;;;;;;0.73;0.52;;;9.60;99.90;;;;;;5054879;28;20079;-91
2023/10/15 06:02:02;;;;;;;1.40;0.50;;;9.60;99.90;;;;;;5038584;28;20112;-92
2023/10/15 06:04:28;;;;;;;3.75;0.95;;;9.60;99.90;;;;;;5055964;28;20028;-90
2023/10/15 06:06:54;;;;;;;2.10;0.50;;;9.70;99.90;;;;;;5055868;28;20036;-90
2023/10/15 06:09:20;;;;;;;0.85;0.40;;;9.70;99.90;;;;;;5038372;28;20029;-90
2023/10/15 06:11:46;;;;;;;1.80;0.50;;;9.60;99.90;;;;;;5054789;28;20079;-91
2023/10/15 06:14:12;;;;;;;2.53;0.63;;;9.60;99.90;;;;;;5054478;28;20055;-91
2023/10/15 06:16:38;;;;;;;1.77;0.55;;;9.60;99.90;;;;;;5054664;28;20078;-92
2023/10/15 06:19:03;;;;;;;1.60;0.50;;;9.60;99.90;;;;;;5038389;28;20415;-90
2023/10/15 06:21:29;;;;;;;0.80;0.50;;;9.60;99.90;;;;;;5054445;28;20028;-92
2023/10/15 06:23:55;;;;;;;1.15;0.60;;;9.60;99.90;;;;;;5054478;28;20039;-89
2023/10/15 06:26:28;;;;;;;1.92;0.82;;;9.60;99.90;;;;;;5054505;28;20380;-92
2023/10/15 06:28:53;;;;;;;2.40;0.90;;;9.60;99.90;;;;;;5054732;28;20036;-91
2023/10/15 06:31:19;;;;;;;1.50;0.52;;;9.60;99.90;;;;;;5054330;28;20477;-91
2023/10/15 06:33:45;;;;;;;2.90;0.90;;;9.60;99.90;;;;;;5054625;28;20040;-91
2023/10/15 06:36:11;;;;;;;1.08;0.75;;;9.70;99.90;;;;;;5054645;28;20078;-92
2023/10/15 06:38:39;;;;;;;1.83;0.57;;;9.70;99.90;;;;;;5037849;28;20025;-92
2023/10/15 06:41:09;;;;;;;1.73;0.70;;;9.60;99.90;;;;;;5055518;28;20111;-91
2023/10/15 06:43:36;;;;;;;2.13;0.85;;;9.70;99.90;;;;;;5061365;28;20029;-91
2023/10/15 06:46:07;;;;;;;2.88;0.70;;;9.70;99.90;;;;;;5061326;28;20033;-93
2023/10/15 06:48:34;;;;;;;2.67;0.55;;;9.70;99.90;;;;;;5061799;28;20032;-88
2023/10/15 06:51:04;;;;;;;1.23;0.63;;;9.70;99.90;;;;;;5078097;28;20005;-92
2023/10/15 06:53:31;;;;;;;0.63;0.50;;;9.70;99.90;;;;;;5061856;28;20044;-89
2023/10/15 06:55:56;;;;;;;1.33;0.60;;;9.70;99.90;;;;;;5072352;28;20457;-92
2023/10/15 06:58:22;;;;;;;1.95;1.17;;;9.80;99.90;;;;;;5048725;28;20021;-89
2023/10/15 07:00:48;;;;;;;1.17;0.60;;;9.80;99.90;;;;;;5038124;28;20544;-92
2023/10/15 07:03:15;;;;;;;1.77;0.60;;;9.80;99.90;;;;;;5037551;28;20159;-91
2023/10/15 07:05:41;;;;;;;0.95;0.50;;;9.80;99.90;;;;;;5054147;28;20036;-93
2023/10/15 07:08:07;;;;;;;1.85;0.80;;;9.80;99.90;;;;;;5054970;28;20033;-90
2023/10/15 07:10:33;;;;;;;2.08;0.63;;;9.80;99.90;;;;;;5053599;28;20481;-90
2023/10/15 07:13:01;;;;;;;0.98;0.60;;;9.90;99.90;;;;;;5056388;28;20381;-91
2023/10/15 07:15:29;;;;;;;1.52;0.57;;;9.90;99.90;;;;;;5040720;28;20054;-91
2023/10/15 07:17:56;;;;;;;2.35;0.70;;;10.00;99.90;;;;;;5057284;28;20050;-91
2023/10/15 07:20:24;;;;;;;1.50;0.50;;;9.90;99.90;;;;;;5056927;28;20024;-89
2023/10/15 07:22:53;;;;;;;2.35;0.70;;;10.00;99.90;;;;;;5057427;28;20100;-91
2023/10/15 07:25:21;;;;;;;3.28;0.98;;;10.00;99.90;;;;;;5040729;28;20465;-88
2023/10/15 07:27:48;;;;;;;2.45;0.80;;;10.00;99.90;;;;;;5056281;28;20059;-88
2023/10/15 07:30:15;;;;;;;1.10;0.60;;;10.10;99.90;;;;;;5057187;28;20032;-88
2023/10/15 07:32:43;;;;;;;1.95;0.90;;;10.10;99.90;;;;;;5040436;28;20028;-88
2023/10/15 07:35:13;;;;;;;2.08;0.73;;;10.20;99.90;;;;;;5074049;28;20487;-89
2023/10/15 07:37:43;;;;;;;1.95;0.70;;;10.20;99.90;;;;;;5056681;28;20036;-92
2023/10/15 07:40:25;;;;;;;1.52;0.90;;;10.30;99.90;;;;;;5056750;28;20021;-89
2023/10/15 07:42:53;;;;;;;2.17;0.70;;;10.30;99.90;;;;;;5074547;28;20028;-88
2023/10/15 07:45:20;;;;;;;1.98;0.90;;;10.30;99.90;;;;;;5074399;28;20110;-88
2023/10/15 07:47:46;;;;;;;1.35;0.70;;;10.30;99.90;;;;;;5056646;28;20110;-89
2023/10/15 07:50:16;;;;;;;2.55;0.65;;;10.30;99.90;;;;;;5056651;28;20020;-88
2023/10/15 07:52:43;;;;;;;1.00;0.70;;;10.30;99.90;;;;;;5056488;28;20056;-89
2023/10/15 07:55:12;;;;;;;2.75;0.70;;;10.30;99.90;;;;;;5056541;28;20041;-92
2023/10/15 07:57:38;;;;;;;3.05;0.80;;;10.30;99.90;;;;;;5041278;28;20097;-90
2023/10/15 08:00:08;;;;;;;1.98;0.70;;;10.30;99.90;;;;;;5044083;28;20120;-88
2023/10/15 08:02:37;;;;;;;0.95;0.70;;;10.30;99.90;;;;;;5060745;28;20074;-89
2023/10/15 08:05:04;;;;;;;1.95;1.08;;;10.30;99.90;;;;;;5060733;28;20460;-89
2023/10/15 08:07:29;;;;;;;1.52;0.70;;;10.40;99.90;;;;;;5043963;28;20031;-89
2023/10/15 08:09:55;;;;;;;1.08;0.68;;;10.40;99.90;;;;;;5061177;28;20107;-90
2023/10/15 08:12:21;;;;;;;1.63;0.70;;;10.40;99.90;;;;;;5060988;28;20032;-89
2023/10/15 08:14:47;;;;;;;3.03;1.10;;;10.40;99.90;;;;;;5062021;28;20250;-90
2023/10/15 08:17:14;;;;;;;2.60;0.93;;;10.40;99.90;;;;;;5100657;28;20084;-89
2023/10/15 08:19:40;;;;;;;3.58;1.13;;;10.50;99.90;;;;;;5084330;28;20013;-88
2023/10/15 08:22:06;;;;;;;2.67;1.00;;;10.50;99.90;;;;;;5083868;28;20024;-88
2023/10/15 08:24:32;;;;;;;4.95;0.98;;;10.60;99.90;;;;;;5083168;28;20017;-87
2023/10/15 08:26:58;;;;;;;2.47;0.85;;;10.60;99.90;;;;;;5062345;28;20020;-88
2023/10/15 08:29:23;;;;;;;3.20;1.00;;;10.60;99.90;;;;;;5060861;28;20357;-87
2023/10/15 08:31:49;;;;;;;1.50;0.68;;;10.70;99.90;;;;;;5077658;28;20112;-89
2023/10/15 08:34:16;;;;;;;2.35;0.77;;;10.70;99.90;;;;;;5077514;28;20039;-89
2023/10/15 08:36:42;;;;;;;3.50;0.80;;;10.70;99.90;;;;;;5043422;28;20028;-89
2023/10/15 08:39:08;;;;;;;1.05;0.63;;;10.70;99.90;;;;;;5059995;28;20086;-88
2023/10/15 08:41:44;;;;;;;4.38;0.88;;;10.70;99.90;;;;;;5059842;28;20028;-90
2023/10/15 08:44:18;;;;;;;1.73;0.60;;;10.60;99.90;;;;;;5060427;28;20052;-89
2023/10/15 08:46:49;;;;;;;2.03;0.60;;;10.70;99.90;;;;;;5059991;28;20048;-89
2023/10/15 08:49:15;;;;;;;3.60;0.85;;;10.70;99.90;;;;;;5059864;28;20452;-90
2023/10/15 08:51:46;;;;;;;1.15;0.55;;;10.70;99.90;;;;;;5077406;28;20052;-89
2023/10/15 08:54:15;;;;;;;0.90;0.60;;;10.80;99.90;;;;;;5077465;28;20132;-89
2023/10/15 08:56:41;;;;;;;1.85;0.65;;;10.80;99.90;;;;;;5059493;28;20048;-90
2023/10/15 08:59:09;;;;;;;1.90;0.60;;;10.80;99.90;;;;;;5059595;28;20061;-91
2023/10/15 09:01:37;;;;;;;1.95;0.90;;;10.80;99.90;;;;;;5059480;28;20024;-89
2023/10/15 09:04:04;;;;;;;1.33;0.55;;;10.90;99.90;;;;;;5059536;28;20027;-89
2023/10/15 09:06:30;;;;;;;0.98;0.50;;;10.90;99.90;;;;;;5059220;28;20035;-88
2023/10/15 09:08:56;;;;;;;1.70;0.68;;;10.90;99.90;;;;;;5058218;28;20021;-92
2023/10/15 09:11:22;;;;;;;3.80;1.02;;;10.90;99.90;;;;;;5059331;28;20031;-90
2023/10/15 09:13:54;;;;;;;1.92;0.70;;;10.90;99.90;;;;;;5055471;28;20130;-90
2023/10/15 09:16:26;;;;;;;2.10;0.55;;;10.90;99.90;;;;;;5055947;28;20104;-89
2023/10/15 09:18:51;;;;;;;1.75;0.50;;;11.00;99.90;;;;;;5056757;28;20087;-90
2023/10/15 09:21:26;;;;;;;3.30;0.70;;;11.00;99.90;;;;;;5055985;28;20025;-90
2023/10/15 09:23:52;;;;;;;1.50;0.50;;;11.00;99.90;;;;;;5055871;28;20029;-91
2023/10/15 09:26:18;;;;;;;2.38;0.90;;;11.10;99.90;;;;;;5056705;28;20108;-89
2023/10/15 09:28:45;;;;;;;1.42;0.63;;;11.20;99.90;;;;;;5055431;28;20049;-90
2023/10/15 09:31:11;;;;;;;1.48;0.60;;;11.20;99.90;;;;;;5056048;28;20021;-89
2023/10/15 09:33:39;;;;;;;1.77;0.50;;;11.20;99.90;;;;;;5055567;28;20037;-89
2023/10/15 09:36:05;;;;;;;1.30;0.57;;;11.20;99.90;;;;;;5055512;28;20029;-90
2023/10/15 09:38:32;;;;;;;1.13;0.50;;;11.20;99.90;;;;;;5055476;28;20029;-88
2023/10/15 09:41:02;;;;;;;1.88;0.50;;;11.20;99.90;;;;;;5055514;28;20025;-88
2023/10/15 09:43:31;;;;;;;0.90;0.45;;;11.20;99.90;;;;;;5055980;28;20412;-91
2023/10/15 09:45:58;;;;;;;2.20;0.70;;;11.20;99.90;;;;;;5056122;28;20111;-91
2023/10/15 09:48:25;;;;;;;1.58;0.60;;;11.20;99.90;;;;;;5055797;28;20492;-90
2023/10/15 09:50:59;;;;;;;2.63;1.15;;;11.30;99.90;;;;;;5061946;28;20043;-89
2023/10/15 09:53:29;;;;;;;1.33;0.50;;;11.30;99.90;;;;;;5079465;28;20021;-89
2023/10/15 09:55:58;;;;;;;1.95;0.60;;;11.40;99.90;;;;;;5062826;28;20028;-89
2023/10/15 09:58:25;;;;;;;3.05;0.80;;;11.40;99.90;;;;;;5078497;28;20096;-92
2023/10/15 10:01:25;;;;;;;1.90;0.57;;;11.50;99.90;;;;;;5054518;28;20029;-90
2023/10/15 10:04:05;;;;;;;3.53;1.30;;;11.50;99.90;;;;;;5056390;28;20054;-89
2023/10/15 10:06:47;;;;;;;0.93;0.57;;;11.70;99.90;;;;;;5055237;28;20075;-91
2023/10/15 10:09:51;;;;;;;1.67;0.50;;;11.70;99.90;;;;;;5055064;28;20037;-89
2023/10/15 10:12:35;;;;;;;1.92;0.77;;;11.70;99.90;;;;;;5056204;28;20032;-91
2023/10/15 10:15:15;;;;;;;2.05;0.75;;;11.80;99.90;;;;;;5073622;28;20059;-89
2023/10/15 10:17:42;;;;;;;1.52;0.60;;;11.80;99.90;;;;;;5058375;28;20495;-88
2023/10/15 10:20:11;;;;;;;3.67;0.80;;;11.80;99.90;;;;;;5058095;28;20533;-89
2023/10/15 10:22:39;;;;;;;1.52;0.65;;;11.80;99.90;;;;;;5041903;28;20032;-89
2023/10/15 10:25:11;;;;;;;3.78;0.70;;;11.80;99.90;;;;;;5041213;28;20042;-89
2023/10/15 10:27:43;;;;;;;1.67;0.70;;;11.80;99.90;;;;;;5058360;28;20020;-89
2023/10/15 10:30:28;;;;;;;1.73;0.50;;;11.80;99.90;;;;;;5057713;28;20472;-89
2023/10/15 10:33:04;;;;;;;1.48;0.60;;;11.80;99.90;;;;;;5057693;28;20028;-90
2023/10/15 10:35:45;;;;;;;2.20;0.60;;;11.90;99.90;;;;;;5058028;28;20468;-89
2023/10/15 10:38:21;;;;;;;3.35;0.70;;;11.90;99.90;;;;;;5057675;28;20017;-90
2023/10/15 10:40:48;;;;;;;2.17;0.90;;;11.90;99.90;;;;;;5041046;28;20032;-90
2023/10/15 10:43:24;;;;;;;2.35;0.80;;;11.90;99.90;;;;;;5040531;28;20035;-90
2023/10/15 10:46:02;;;;;;;2.05;0.55;;;12.00;99.90;;;;;;5057337;28;20032;-91
2023/10/15 10:48:33;;;;;;;2.70;0.63;;;12.00;99.90;;;;;;5057276;28;20017;-89
2023/10/15 10:51:11;;;;;;;1.42;0.65;;;12.00;99.90;;;;;;5040905;28;20020;-90
2023/10/15 10:54:06;;;;;;;1.92;0.50;;;12.10;99.90;;;;;;5057357;28;20028;-91
2023/10/15 10:56:41;;;;;;;3.45;0.82;;;12.10;99.90;;;;;;5056570;28;20039;-91
2023/10/15 10:59:08;;;;;;;1.48;0.73;;;12.20;99.90;;;;;;5056780;28;20020;-91
2023/10/15 11:01:45;;;;;;;1.58;0.57;;;12.20;99.90;;;;;;5057193;28;20059;-90
2023/10/15 11:04:18;;;;;;;3.05;0.77;;;12.20;99.90;;;;;;5057065;28;20033;-92
2023/10/15 11:06:48;;;;;;;1.95;0.73;;;12.30;99.90;;;;;;5056961;28;20016;-90
2023/10/15 11:09:21;;;;;;;2.08;0.50;;;12.30;99.90;;;;;;5057150;28;20031;-90
2023/10/15 11:11:48;;;;;;;2.25;0.80;;;12.30;99.90;;;;;;5056943;28;20033;-91
2023/10/15 11:14:15;;;;;;;3.75;0.82;;;12.30;99.90;;;;;;5039743;28;20055;-89
2023/10/15 11:16:45;;;;;;;1.63;0.70;;;12.30;99.90;;;;;;5056890;28;20016;-91
2023/10/15 11:19:23;;;;;;;1.65;0.70;;;12.40;99.90;;;;;;5040828;28;20036;-90
2023/10/15 11:21:51;;;;;;;0.90;0.52;;;12.40;99.90;;;;;;5058340;28;20372;-90
2023/10/15 11:24:23;;;;;;;2.20;0.60;;;12.50;99.90;;;;;;5045714;28;20055;-91
2023/10/15 11:26:49;;;;;;;1.45;0.50;;;12.50;99.90;;;;;;5078868;28;20017;-88
2023/10/15 11:29:18;;;;;;;1.80;0.52;;;12.60;99.80;;;;;;5080255;28;20012;-92
2023/10/15 11:31:47;;;;;;;1.60;0.82;;;12.70;99.70;;;;;;5063926;28;20034;-89
2023/10/15 11:34:17;;;;;;;2.35;0.70;;;12.80;99.80;;;;;;5078934;28;20036;-89
2023/10/15 11:36:44;;;;;;;3.22;0.95;;;12.90;99.70;;;;;;5057979;28;20033;-90
2023/10/15 11:39:18;;;;;;;2.72;0.70;;;12.90;99.60;;;;;;5057342;28;20024;-90
2023/10/15 11:41:56;;;;;;;5.20;1.33;;;12.90;99.50;;;;;;5040932;28;20024;-90
2023/10/15 11:44:26;;;;;;;2.25;0.70;;;13.00;99.30;;;;;;5057119;28;20028;-92
2023/10/15 11:46:54;;;;;;;2.42;0.82;;;13.00;99.60;;;;;;5040900;28;20032;-90
2023/10/15 11:49:22;;;;;;;2.80;0.93;;;13.00;99.20;;;;;;5057035;28;20027;-90
2023/10/15 11:51:55;;;;;;;3.58;0.93;;;13.10;99.20;;;;;;5123590;22;20907;-93
2023/10/15 11:54:29;;;;;;;2.42;0.90;;;13.20;99.20;;;;;;5037513;28;20037;-91
2023/10/15 11:56:59;;;;;;;1.40;0.80;;;13.20;99.10;;;;;;5036352;28;20043;-92
2023/10/15 11:59:26;;;;;;;3.33;0.80;;;13.20;99.00;;;;;;5036526;28;20021;-91
2023/10/15 12:01:54;;;;;;;3.55;0.77;;;13.20;98.90;;;;;;5039495;28;20492;-91
2023/10/15 12:04:23;;;;;;;2.85;1.15;;;13.20;98.50;;;;;;5038715;28;20070;-93
2023/10/15 12:06:49;;;;;;;2.70;0.50;;;13.20;98.40;;;;;;5041187;28;20029;-93
2023/10/15 12:09:24;;;;;;;2.72;0.90;;;13.20;98.50;;;;;;5036319;28;20473;-90
2023/10/15 12:11:55;;;;;;;2.22;0.80;;;13.20;98.50;;;;;;5054049;28;20031;-92
2023/10/15 12:14:24;;;;;;;1.77;0.73;;;13.20;98.10;;;;;;5018972;28;20059;-92
2023/10/15 12:16:49;;;;;;;1.90;0.70;;;13.20;98.00;;;;;;5045369;28;20483;-93
2023/10/15 12:19:17;;;;;;;3.47;1.00;;;13.20;98.00;;;;;;5037830;28;20112;-93
2023/10/15 12:21:43;;;;;;;2.10;0.73;;;13.10;98.00;;;;;;5041155;28;20054;-90
2023/10/15 12:24:11;;;;;;;3.40;0.75;;;13.20;98.00;;;;;;5035532;28;20013;-91
2023/10/15 12:26:36;;;;;;;2.30;0.70;;;13.20;98.00;;;;;;5040752;28;20065;-91
2023/10/15 12:29:09;;;;;;;4.70;0.80;;;13.20;97.90;;;;;;5036191;28;20036;-93
2023/10/15 12:31:38;;;;;;;2.38;0.90;;;13.20;97.70;;;;;;5036802;28;20485;-91
2023/10/15 12:34:06;;;;;;;5.20;0.90;;;13.30;97.80;;;;;;5049802;28;20167;-93
2023/10/15 12:36:38;;;;;;;1.60;0.77;;;13.30;97.70;;;;;;5054030;28;20026;-93
2023/10/15 12:39:07;;;;;;;1.27;0.60;;;13.30;97.80;;;;;;5035997;28;20075;-93
2023/10/15 12:41:38;;;;;;;2.92;0.60;;;13.30;97.80;;;;;;5019965;28;20021;-92
2023/10/15 12:44:10;;;;;;;1.10;0.60;;;13.30;97.80;;;;;;5055118;28;20033;-90
2023/10/15 12:46:37;;;;;;;3.35;0.73;;;13.30;97.80;;;;;;5057610;28;20025;-91
2023/10/15 12:49:05;;;;;;;3.55;0.65;;;13.30;97.80;;;;;;5037604;28;20449;-89
2023/10/15 12:51:31;;;;;;;2.88;0.60;;;13.30;97.80;;;;;;5049696;28;20028;-90
2023/10/15 12:53:56;;;;;;;1.73;0.85;;;13.30;97.90;;;;;;5036147;28;20046;-90
2023/10/15 12:56:24;;;;;;;1.77;0.80;;;13.30;97.80;;;;;;5009073;28;20050;-92
2023/10/15 12:58:53;;;;;;;1.95;0.50;;;13.40;97.80;;;;;;5018398;28;20437;-91
2023/10/15 13:01:20;;;;;;;1.83;0.57;;;13.30;97.70;;;;;;5033592;28;20113;-90
2023/10/15 13:03:49;;;;;;;1.15;0.50;;;13.40;97.70;;;;;;5039729;28;20024;-90
2023/10/15 13:06:15;;;;;;;1.17;0.40;;;13.40;97.90;;;;;;5049272;28;20025;-90
2023/10/15 13:08:42;;;;;;;2.25;0.60;;;13.40;98.00;;;;;;5041274;28;20041;-90